createdAt,value
2023-05-20T00:00:04.151Z,11.16
2023-05-20T00:01:04.399Z,11.17
2023-05-20T00:02:04.656Z,11.17
2023-05-20T00:03:04.994Z,11.17
2023-05-20T00:04:05.500Z,11.17
2023-05-20T00:05:05.582Z,11.14
2023-05-20T00:06:05.809Z,11.14
2023-05-20T00:07:06.070Z,11.13
2023-05-20T00:08:06.362Z,11.11
2023-05-20T00:09:06.628Z,11.10
2023-05-20T00:10:06.904Z,11.09
2023-05-20T00:11:07.202Z,11.07
2023-05-20T00:12:07.477Z,11.02
2023-05-20T00:13:07.738Z,11.02
2023-05-20T00:14:08.016Z,11.01
2023-05-20T00:15:08.289Z,11.01
2023-05-20T00:16:08.632Z,10.99
2023-05-20T00:17:08.834Z,11.01
2023-05-20T00:18:09.168Z,10.98
2023-05-20T00:19:09.412Z,10.96
2023-05-20T00:20:09.730Z,10.95
2023-05-20T00:21:09.968Z,10.95
2023-05-20T00:22:10.225Z,10.95
2023-05-20T00:23:10.537Z,10.92
2023-05-20T00:24:10.771Z,10.92
2023-05-20T00:25:11.040Z,10.89
2023-05-20T00:26:11.290Z,10.91
2023-05-20T00:27:11.569Z,10.89
2023-05-20T00:28:11.864Z,10.88
2023-05-20T00:29:12.123Z,10.86
2023-05-20T00:30:12.415Z,10.84
2023-05-20T00:31:12.651Z,10.81
2023-05-20T00:32:12.904Z,10.80
2023-05-20T00:33:13.386Z,10.81
2023-05-20T00:34:13.398Z,10.80
2023-05-20T00:35:13.659Z,10.77
2023-05-20T00:36:13.958Z,10.77
2023-05-20T00:37:14.217Z,10.76
2023-05-20T00:38:14.549Z,10.73
2023-05-20T00:39:14.802Z,10.73
2023-05-20T00:40:15.754Z,10.71
2023-05-20T00:41:15.378Z,10.73
2023-05-20T00:42:15.639Z,10.71
2023-05-20T00:43:15.941Z,10.68
2023-05-20T00:44:16.193Z,10.68
2023-05-20T00:45:16.452Z,10.68
2023-05-20T00:46:16.814Z,10.66
2023-05-20T00:47:17.039Z,10.63
2023-05-20T00:48:17.322Z,10.62
2023-05-20T00:49:17.577Z,10.59
2023-05-20T00:50:17.848Z,10.58
2023-05-20T00:51:18.158Z,10.55
2023-05-20T00:52:18.380Z,10.53
2023-05-20T00:53:18.685Z,10.52
2023-05-20T00:54:18.900Z,10.46
2023-05-20T00:55:19.176Z,10.44
2023-05-20T00:56:19.455Z,10.44
2023-05-20T00:57:19.718Z,10.44
2023-05-20T00:58:19.993Z,10.40
2023-05-20T00:59:20.257Z,10.37
2023-05-20T01:00:20.545Z,10.39
2023-05-20T01:01:20.832Z,10.36
2023-05-20T01:02:21.116Z,10.36
2023-05-20T01:03:21.491Z,10.33
2023-05-20T01:04:21.675Z,10.32
2023-05-20T01:05:21.947Z,10.32
2023-05-20T01:06:22.198Z,10.30
2023-05-20T01:07:22.458Z,10.30
2023-05-20T01:08:22.755Z,10.28
2023-05-20T01:09:23.001Z,10.26
2023-05-20T01:10:23.254Z,10.24
2023-05-20T01:11:23.524Z,10.22
2023-05-20T01:12:23.796Z,10.21
2023-05-20T01:13:24.115Z,10.18
2023-05-20T01:14:24.368Z,10.15
2023-05-20T01:15:24.653Z,10.15
2023-05-20T01:16:25.055Z,10.12
2023-05-20T01:17:25.272Z,10.14
2023-05-20T01:18:25.575Z,10.12
2023-05-20T01:19:25.813Z,10.10
2023-05-20T01:20:26.072Z,10.10
2023-05-20T01:21:33.382Z,10.04
2023-05-20T01:22:26.600Z,10.04
2023-05-20T01:23:26.917Z,10.03
2023-05-20T01:24:27.171Z,10.01
2023-05-20T01:25:27.462Z,10.01
2023-05-20T01:26:27.712Z,10.00
2023-05-20T01:27:27.987Z,9.97
2023-05-20T01:28:28.235Z,9.97
2023-05-20T01:29:28.476Z,9.96
2023-05-20T01:30:28.727Z,9.94
2023-05-20T01:31:29.026Z,9.91
2023-05-20T01:32:29.277Z,9.89
2023-05-20T01:33:29.563Z,9.88
2023-05-20T01:34:29.798Z,9.86
2023-05-20T01:35:30.031Z,9.86
2023-05-20T01:36:30.306Z,9.85
2023-05-20T01:37:30.569Z,9.85
2023-05-20T01:38:30.854Z,9.85
2023-05-20T01:39:31.133Z,9.85
2023-05-20T01:40:31.396Z,9.83
2023-05-20T01:41:31.663Z,9.83
2023-05-20T01:42:31.934Z,9.83
2023-05-20T01:43:32.233Z,9.83
2023-05-20T01:44:32.458Z,9.83
2023-05-20T01:45:32.948Z,9.82
2023-05-20T01:46:33.068Z,9.83
2023-05-20T01:47:33.455Z,9.82
2023-05-20T01:48:33.628Z,9.82
2023-05-20T01:49:33.922Z,9.83
2023-05-20T01:50:34.193Z,9.85
2023-05-20T01:51:34.437Z,9.86
2023-05-20T01:52:34.711Z,9.88
2023-05-20T01:53:34.994Z,9.88
2023-05-20T01:54:35.253Z,9.86
2023-05-20T01:55:35.787Z,9.83
2023-05-20T01:56:35.799Z,9.83
2023-05-20T01:57:36.084Z,9.82
2023-05-20T01:58:36.370Z,9.81
2023-05-20T01:59:36.628Z,9.78
2023-05-20T02:00:36.955Z,9.76
2023-05-20T02:01:37.170Z,9.75
2023-05-20T02:02:37.546Z,9.73
2023-05-20T02:03:37.786Z,9.68
2023-05-20T02:04:38.078Z,9.64
2023-05-20T02:05:38.683Z,9.61
2023-05-20T02:06:38.567Z,9.57
2023-05-20T02:07:38.841Z,9.53
2023-05-20T02:08:39.117Z,9.50
2023-05-20T02:09:39.369Z,9.52
2023-05-20T02:10:39.606Z,9.50
2023-05-20T02:11:39.873Z,9.49
2023-05-20T02:12:40.120Z,9.46
2023-05-20T02:13:40.364Z,9.45
2023-05-20T02:14:40.601Z,9.45
2023-05-20T02:15:40.911Z,9.42
2023-05-20T02:16:41.263Z,9.40
2023-05-20T02:17:41.502Z,9.42
2023-05-20T02:18:41.799Z,9.40
2023-05-20T02:19:42.049Z,9.40
2023-05-20T02:20:42.331Z,9.40
2023-05-20T02:21:42.568Z,9.39
2023-05-20T02:22:42.831Z,9.38
2023-05-20T02:23:43.087Z,9.35
2023-05-20T02:24:43.352Z,9.34
2023-05-20T02:25:43.612Z,9.32
2023-05-20T02:26:43.865Z,9.34
2023-05-20T02:27:44.106Z,9.32
2023-05-20T02:28:44.388Z,9.32
2023-05-20T02:29:44.669Z,9.30
2023-05-20T02:30:44.919Z,9.30
2023-05-20T02:31:45.185Z,9.28
2023-05-20T02:32:45.481Z,9.27
2023-05-20T02:33:45.802Z,9.27
2023-05-20T02:34:45.994Z,9.25
2023-05-20T02:35:46.238Z,9.24
2023-05-20T02:36:46.515Z,9.24
2023-05-20T02:37:46.771Z,9.25
2023-05-20T02:38:46.989Z,9.27
2023-05-20T02:39:47.240Z,9.27
2023-05-20T02:40:47.519Z,9.30
2023-05-20T02:41:47.809Z,9.28
2023-05-20T02:42:48.113Z,9.28
2023-05-20T02:43:48.357Z,9.25
2023-05-20T02:44:48.630Z,9.24
2023-05-20T02:45:48.897Z,9.24
2023-05-20T02:46:49.199Z,9.23
2023-05-20T02:47:49.472Z,9.20
2023-05-20T02:48:49.733Z,9.16
2023-05-20T02:49:50.002Z,9.16
2023-05-20T02:50:50.250Z,9.15
2023-05-20T02:51:50.517Z,9.18
2023-05-20T02:52:50.839Z,9.20
2023-05-20T02:53:51.153Z,9.20
2023-05-20T02:54:51.423Z,9.18
2023-05-20T02:55:51.701Z,9.20
2023-05-20T02:56:51.942Z,9.20
2023-05-20T02:57:52.217Z,9.20
2023-05-20T02:58:52.548Z,9.18
2023-05-20T02:59:52.760Z,9.18
2023-05-20T03:00:53.001Z,9.13
2023-05-20T03:01:53.279Z,9.10
2023-05-20T03:02:53.643Z,9.09
2023-05-20T03:03:53.945Z,9.10
2023-05-20T03:04:54.244Z,9.06
2023-05-20T03:05:54.476Z,9.05
2023-05-20T03:06:54.711Z,9.04
2023-05-20T03:07:54.944Z,9.04
2023-05-20T03:08:55.195Z,9.04
2023-05-20T03:09:55.478Z,9.06
2023-05-20T03:10:55.749Z,9.10
2023-05-20T03:11:56.033Z,9.09
2023-05-20T03:12:56.316Z,9.09
2023-05-20T03:13:56.637Z,9.06
2023-05-20T03:14:56.913Z,9.06
2023-05-20T03:15:57.209Z,9.05
2023-05-20T03:16:57.455Z,9.05
2023-05-20T03:17:57.750Z,9.02
2023-05-20T03:18:58.117Z,9.01
2023-05-20T03:19:58.326Z,8.99
2023-05-20T03:20:58.622Z,8.99
2023-05-20T03:21:58.884Z,8.94
2023-05-20T03:22:59.137Z,8.94
2023-05-20T03:23:59.391Z,8.96
2023-05-20T03:24:59.671Z,8.96
2023-05-20T03:25:59.937Z,8.94
2023-05-20T03:27:00.225Z,8.94
2023-05-20T03:28:00.518Z,8.93
2023-05-20T03:29:00.791Z,8.93
2023-05-20T03:30:01.052Z,8.94
2023-05-20T03:31:01.390Z,8.93
2023-05-20T03:32:01.658Z,8.96
2023-05-20T03:33:01.984Z,8.96
2023-05-20T03:34:02.274Z,8.96
2023-05-20T03:35:02.559Z,8.96
2023-05-20T03:36:02.856Z,8.97
2023-05-20T03:37:03.104Z,8.97
2023-05-20T03:38:03.401Z,8.97
2023-05-20T03:39:03.709Z,8.99
2023-05-20T03:40:04.011Z,8.99
2023-05-20T03:41:04.296Z,8.99
2023-05-20T03:42:04.565Z,8.97
2023-05-20T03:43:04.821Z,8.97
2023-05-20T03:44:05.156Z,8.97
2023-05-20T03:45:05.474Z,8.99
2023-05-20T03:46:05.818Z,8.99
2023-05-20T03:47:06.197Z,8.99
2023-05-20T03:48:06.502Z,9.01
2023-05-20T03:49:06.763Z,9.01
2023-05-20T03:50:07.036Z,9.02
2023-05-20T03:51:07.384Z,9.02
2023-05-20T03:52:07.622Z,9.04
2023-05-20T03:53:07.891Z,9.05
2023-05-20T03:54:08.177Z,9.04
2023-05-20T03:55:08.470Z,9.02
2023-05-20T03:56:08.776Z,8.99
2023-05-20T03:57:09.081Z,8.99
2023-05-20T03:58:09.413Z,8.99
2023-05-20T03:59:09.717Z,9.01
2023-05-20T04:00:10.034Z,9.06
2023-05-20T04:01:10.332Z,9.10
2023-05-20T04:02:10.703Z,9.13
2023-05-20T04:03:11.096Z,9.15
2023-05-20T04:04:11.254Z,9.20
2023-05-20T04:05:11.496Z,9.21
2023-05-20T04:06:11.773Z,9.23
2023-05-20T04:07:12.081Z,9.27
2023-05-20T04:08:12.354Z,9.28
2023-05-20T04:09:12.682Z,9.31
2023-05-20T04:10:13.023Z,9.32
2023-05-20T04:11:13.316Z,9.35
2023-05-20T04:12:13.603Z,9.42
2023-05-20T04:13:13.897Z,9.45
2023-05-20T04:14:14.208Z,9.46
2023-05-20T04:15:14.546Z,9.50
2023-05-20T04:16:14.917Z,9.52
2023-05-20T04:17:15.067Z,9.56
2023-05-20T04:18:15.507Z,9.58
2023-05-20T04:19:15.683Z,9.60
2023-05-20T04:20:15.921Z,9.61
2023-05-20T04:21:16.227Z,9.63
2023-05-20T04:22:16.525Z,9.66
2023-05-20T04:23:16.893Z,9.68
2023-05-20T04:24:17.150Z,9.73
2023-05-20T04:25:17.470Z,9.76
2023-05-20T04:26:17.795Z,9.79
2023-05-20T04:27:18.132Z,9.82
2023-05-20T04:28:18.451Z,9.83
2023-05-20T04:29:18.782Z,9.86
2023-05-20T04:30:19.096Z,9.91
2023-05-20T04:31:19.425Z,9.89
2023-05-20T04:32:19.693Z,9.93
2023-05-20T04:33:20.062Z,9.96
2023-05-20T04:34:20.374Z,9.99
2023-05-20T04:35:20.563Z,10.01
2023-05-20T04:36:20.843Z,10.04
2023-05-20T04:37:21.146Z,10.09
2023-05-20T04:38:21.488Z,10.14
2023-05-20T04:39:21.807Z,10.19
2023-05-20T04:40:22.140Z,10.22
2023-05-20T04:41:22.492Z,10.28
2023-05-20T04:42:22.766Z,10.36
2023-05-20T04:43:23.077Z,10.42
2023-05-20T04:44:23.411Z,10.47
2023-05-20T04:45:23.710Z,10.56
2023-05-20T04:46:24.054Z,10.62
2023-05-20T04:47:24.359Z,10.71
2023-05-20T04:48:24.677Z,10.80
2023-05-20T04:49:24.996Z,10.88
2023-05-20T04:50:25.287Z,10.98
2023-05-20T04:51:25.603Z,11.09
2023-05-20T04:52:25.900Z,11.17
2023-05-20T04:53:26.206Z,11.28
2023-05-20T04:54:26.517Z,11.38
2023-05-20T04:55:26.811Z,11.47
2023-05-20T04:56:27.123Z,11.57
2023-05-20T04:57:27.447Z,11.65
2023-05-20T04:58:27.786Z,11.72
2023-05-20T04:59:28.138Z,11.80
2023-05-20T05:00:28.328Z,11.83
2023-05-20T05:01:28.650Z,11.93
2023-05-20T05:02:28.985Z,12.01
2023-05-20T05:03:29.280Z,12.08
2023-05-20T05:04:29.594Z,12.16
2023-05-20T05:05:29.790Z,12.26
2023-05-20T05:06:30.133Z,12.33
2023-05-20T05:07:30.451Z,12.42
2023-05-20T05:08:30.766Z,12.49
2023-05-20T05:09:32.195Z,12.57
2023-05-20T05:10:31.413Z,12.63
2023-05-20T05:11:31.726Z,12.69
2023-05-20T05:12:32.006Z,12.78
2023-05-20T05:13:32.320Z,12.88
2023-05-20T05:14:32.657Z,12.99
2023-05-20T05:15:33.243Z,13.09
2023-05-20T05:16:33.525Z,13.18
2023-05-20T05:17:33.651Z,13.27
2023-05-20T05:18:33.937Z,13.36
2023-05-20T05:19:34.273Z,13.37
2023-05-20T05:20:34.600Z,13.40
2023-05-20T05:21:34.936Z,13.43
2023-05-20T05:22:35.244Z,13.49
2023-05-20T05:23:35.549Z,13.52
2023-05-20T05:24:35.887Z,13.54
2023-05-20T05:25:36.288Z,13.55
2023-05-20T05:26:36.534Z,13.62
2023-05-20T05:27:36.834Z,13.69
2023-05-20T05:28:37.146Z,13.76
2023-05-20T05:29:37.433Z,13.80
2023-05-20T05:30:37.718Z,13.83
2023-05-20T05:31:38.015Z,13.95
2023-05-20T05:32:38.383Z,14.02
2023-05-20T05:33:38.779Z,14.14
2023-05-20T05:34:38.902Z,14.28
2023-05-20T05:35:39.195Z,14.39
2023-05-20T05:36:39.490Z,14.50
2023-05-20T05:37:39.811Z,14.53
2023-05-20T05:38:40.098Z,14.61
2023-05-20T05:39:40.431Z,14.67
2023-05-20T05:40:40.762Z,14.69
2023-05-20T05:41:41.068Z,14.78
2023-05-20T05:42:41.393Z,14.88
2023-05-20T05:43:41.650Z,15.01
2023-05-20T05:44:41.994Z,15.06
2023-05-20T05:45:42.321Z,15.11
2023-05-20T05:46:42.717Z,15.13
2023-05-20T05:47:43.055Z,15.13
2023-05-20T05:48:43.400Z,15.19
2023-05-20T05:49:43.665Z,15.24
2023-05-20T05:50:43.933Z,15.24
2023-05-20T05:51:44.247Z,15.28
2023-05-20T05:52:44.528Z,15.33
2023-05-20T05:53:44.822Z,15.41
2023-05-20T05:54:45.148Z,15.39
2023-05-20T05:55:45.457Z,15.43
2023-05-20T05:56:45.776Z,15.51
2023-05-20T05:57:46.161Z,15.59
2023-05-20T05:58:46.437Z,15.66
2023-05-20T05:59:46.717Z,15.75
2023-05-20T06:00:47.093Z,15.85
2023-05-20T06:01:47.374Z,15.92
2023-05-20T06:02:47.860Z,16.06
2023-05-20T06:03:48.054Z,16.11
2023-05-20T06:04:48.224Z,16.09
2023-05-20T06:05:48.522Z,16.12
2023-05-20T06:06:48.848Z,16.22
2023-05-20T06:07:49.168Z,16.33
2023-05-20T06:08:49.458Z,16.37
2023-05-20T06:09:49.816Z,16.86
2023-05-20T06:10:50.039Z,17.69
2023-05-20T06:11:50.223Z,18.43
2023-05-20T06:12:50.562Z,18.91
2023-05-20T06:13:50.886Z,19.14
2023-05-20T06:14:51.248Z,18.80
2023-05-20T06:15:51.566Z,18.55
2023-05-20T06:16:51.897Z,18.36
2023-05-20T06:17:52.231Z,18.40
2023-05-20T06:18:52.446Z,18.36
2023-05-20T06:19:52.746Z,18.25
2023-05-20T06:20:53.037Z,18.06
2023-05-20T06:21:53.371Z,17.78
2023-05-20T06:22:53.738Z,17.84
2023-05-20T06:23:53.999Z,17.94
2023-05-20T06:24:54.306Z,17.95
2023-05-20T06:25:54.607Z,17.95
2023-05-20T06:26:54.906Z,17.92
2023-05-20T06:27:55.264Z,17.87
2023-05-20T06:28:55.528Z,17.84
2023-05-20T06:29:55.843Z,17.88
2023-05-20T06:30:56.248Z,17.87
2023-05-20T06:31:56.407Z,17.99
2023-05-20T06:32:56.730Z,17.99
2023-05-20T06:33:57.010Z,17.89
2023-05-20T06:34:57.316Z,17.91
2023-05-20T06:35:57.605Z,17.89
2023-05-20T06:36:57.897Z,17.87
2023-05-20T06:37:58.298Z,17.66
2023-05-20T06:38:58.538Z,17.57
2023-05-20T06:39:58.831Z,17.67
2023-05-20T06:40:59.200Z,17.79
2023-05-20T06:41:59.497Z,17.82
2023-05-20T06:42:59.845Z,17.79
2023-05-20T06:44:00.159Z,17.82
2023-05-20T06:45:00.533Z,17.88
2023-05-20T06:46:00.825Z,17.59
2023-05-20T06:47:01.069Z,17.66
2023-05-20T06:48:01.460Z,17.81
2023-05-20T06:49:01.713Z,17.91
2023-05-20T06:50:02.225Z,17.94
2023-05-20T06:51:02.309Z,17.87
2023-05-20T06:52:02.649Z,18.02
2023-05-20T06:53:02.963Z,18.17
2023-05-20T06:54:03.285Z,18.22
2023-05-20T06:55:03.583Z,18.25
2023-05-20T06:56:03.926Z,18.36
2023-05-20T06:57:04.192Z,18.46
2023-05-20T06:58:04.516Z,18.57
2023-05-20T06:59:04.853Z,18.72
2023-05-20T07:00:05.141Z,18.83
2023-05-20T07:01:05.494Z,18.95
2023-05-20T07:02:05.922Z,19.32
2023-05-20T07:03:05.967Z,19.55
2023-05-20T07:04:06.263Z,19.55
2023-05-20T07:05:06.576Z,19.79
2023-05-20T07:06:06.805Z,20.06
2023-05-20T07:07:07.124Z,20.09
2023-05-20T07:08:07.438Z,20.16
2023-05-20T07:09:07.830Z,20.68
2023-05-20T07:10:08.103Z,21.20
2023-05-20T07:11:08.487Z,21.61
2023-05-20T07:12:08.643Z,22.01
2023-05-20T07:13:08.975Z,21.75
2023-05-20T07:14:16.458Z,21.91
2023-05-20T07:15:10.195Z,21.97
2023-05-20T07:16:10.085Z,21.88
2023-05-20T07:17:10.216Z,21.83
2023-05-20T07:18:10.646Z,21.81
2023-05-20T07:19:10.736Z,21.60
2023-05-20T07:20:10.956Z,21.53
2023-05-20T07:21:11.215Z,21.45
2023-05-20T07:22:11.526Z,20.96
2023-05-20T07:23:12.396Z,20.76
2023-05-20T07:24:11.979Z,20.89
2023-05-20T07:25:12.354Z,21.23
2023-05-20T07:26:12.530Z,22.57
2023-05-20T07:27:12.864Z,22.87
2023-05-20T07:28:13.213Z,22.49
2023-05-20T07:29:13.500Z,21.94
2023-05-20T07:30:13.869Z,21.79
2023-05-20T07:31:14.134Z,21.60
2023-05-20T07:32:14.283Z,21.51
2023-05-20T07:33:14.630Z,21.46
2023-05-20T07:34:14.985Z,21.56
2023-05-20T07:35:15.227Z,21.64
2023-05-20T07:36:15.517Z,21.71
2023-05-20T07:37:15.872Z,21.74
2023-05-20T07:38:16.238Z,21.57
2023-05-20T07:39:16.580Z,21.44
2023-05-20T07:40:16.890Z,21.20
2023-05-20T07:41:17.231Z,21.21
2023-05-20T07:42:17.586Z,21.34
2023-05-20T07:43:17.878Z,21.23
2023-05-20T07:44:18.176Z,20.65
2023-05-20T07:45:18.519Z,20.30
2023-05-20T07:46:20.221Z,20.09
2023-05-20T07:47:19.182Z,20.08
2023-05-20T07:48:19.509Z,20.08
2023-05-20T07:49:19.834Z,20.24
2023-05-20T07:50:20.158Z,20.20
2023-05-20T07:51:20.530Z,20.15
2023-05-20T07:52:20.817Z,20.13
2023-05-20T07:53:21.151Z,20.10
2023-05-20T07:54:21.441Z,20.18
2023-05-20T07:55:21.796Z,19.97
2023-05-20T07:56:22.155Z,19.80
2023-05-20T07:57:22.442Z,19.79
2023-05-20T07:58:22.817Z,19.69
2023-05-20T07:59:23.104Z,19.78
2023-05-20T08:00:23.463Z,19.93
2023-05-20T08:01:23.835Z,20.06
2023-05-20T08:02:24.109Z,20.08
2023-05-20T08:03:24.385Z,20.18
2023-05-20T08:04:24.789Z,20.39
2023-05-20T08:05:24.885Z,20.51
2023-05-20T08:06:26.736Z,20.68
2023-05-20T08:07:25.368Z,20.98
2023-05-20T08:08:25.807Z,21.27
2023-05-20T08:09:26.023Z,21.23
2023-05-20T08:10:26.379Z,21.05
2023-05-20T08:11:26.551Z,20.86
2023-05-20T08:12:27.084Z,21.06
2023-05-20T08:13:27.224Z,21.24
2023-05-20T08:14:27.549Z,21.39
2023-05-20T08:15:27.851Z,21.14
2023-05-20T08:16:28.193Z,21.24
2023-05-20T08:17:28.460Z,21.57
2023-05-20T08:18:28.741Z,21.79
2023-05-20T08:19:29.068Z,21.88
2023-05-20T08:20:29.330Z,21.92
2023-05-20T08:21:29.545Z,21.85
2023-05-20T08:22:29.783Z,21.74
2023-05-20T08:23:30.131Z,21.72
2023-05-20T08:24:30.334Z,21.94
2023-05-20T08:25:30.657Z,22.02
2023-05-20T08:26:30.989Z,22.06
2023-05-20T08:27:31.325Z,22.41
2023-05-20T08:28:31.639Z,22.59
2023-05-20T08:29:31.952Z,22.67
2023-05-20T08:30:32.362Z,22.80
2023-05-20T08:31:32.748Z,22.96
2023-05-20T08:32:33.067Z,23.01
2023-05-20T08:33:33.260Z,22.96
2023-05-20T08:34:33.683Z,23.19
2023-05-20T08:35:34.107Z,23.27
2023-05-20T08:36:34.166Z,23.53
2023-05-20T08:37:34.405Z,23.60
2023-05-20T08:38:34.619Z,23.53
2023-05-20T08:39:34.836Z,23.17
2023-05-20T08:40:35.074Z,23.08
2023-05-20T08:41:35.300Z,22.86
2023-05-20T08:42:35.683Z,22.23
2023-05-20T08:43:35.971Z,22.06
2023-05-20T08:44:36.319Z,22.20
2023-05-20T08:45:36.718Z,22.10
2023-05-20T08:46:36.877Z,22.07
2023-05-20T08:47:44.166Z,22.29
2023-05-20T08:48:37.309Z,21.75
2023-05-20T08:49:37.546Z,22.04
2023-05-20T08:50:37.755Z,22.35
2023-05-20T08:51:38.100Z,22.65
2023-05-20T08:52:38.427Z,22.92
2023-05-20T08:53:38.812Z,22.71
2023-05-20T08:54:38.982Z,22.37
2023-05-20T08:55:39.343Z,22.57
2023-05-20T08:56:39.537Z,22.77
2023-05-20T08:57:39.862Z,23.05
2023-05-20T08:58:40.226Z,23.32
2023-05-20T08:59:40.437Z,23.43
2023-05-20T09:00:40.740Z,23.57
2023-05-20T09:01:41.120Z,23.80
2023-05-20T09:02:41.382Z,24.04
2023-05-20T09:03:41.596Z,24.08
2023-05-20T09:04:41.900Z,24.24
2023-05-20T09:05:42.057Z,23.75
2023-05-20T09:06:42.413Z,23.49
2023-05-20T09:07:42.625Z,23.26
2023-05-20T09:08:42.971Z,23.40
2023-05-20T09:09:43.184Z,23.17
2023-05-20T09:10:43.549Z,22.99
2023-05-20T09:11:43.844Z,22.78
2023-05-20T09:12:44.193Z,22.83
2023-05-20T09:13:44.534Z,22.49
2023-05-20T09:14:44.853Z,22.12
2023-05-20T09:15:45.208Z,21.88
2023-05-20T09:16:45.448Z,21.78
2023-05-20T09:17:45.764Z,21.91
2023-05-20T09:18:46.015Z,21.78
2023-05-20T09:19:46.211Z,21.41
2023-05-20T09:20:46.536Z,21.54
2023-05-20T09:21:46.757Z,21.74
2023-05-20T09:22:47.083Z,21.78
2023-05-20T09:23:47.418Z,21.64
2023-05-20T09:24:47.769Z,21.74
2023-05-20T09:25:47.936Z,21.82
2023-05-20T09:26:48.268Z,21.54
2023-05-20T09:27:48.489Z,21.46
2023-05-20T09:28:48.791Z,21.34
2023-05-20T09:29:49.124Z,21.34
2023-05-20T09:30:49.421Z,21.60
2023-05-20T09:31:49.947Z,21.83
2023-05-20T09:32:50.134Z,22.01
2023-05-20T09:33:50.383Z,22.06
2023-05-20T09:34:50.715Z,22.22
2023-05-20T09:35:51.042Z,22.38
2023-05-20T09:36:51.381Z,22.62
2023-05-20T09:37:51.609Z,22.22
2023-05-20T09:38:51.864Z,22.07
2023-05-20T09:39:52.078Z,21.97
2023-05-20T09:40:52.378Z,22.12
2023-05-20T09:41:52.662Z,22.38
2023-05-20T09:42:52.981Z,22.68
2023-05-20T09:43:53.348Z,22.46
2023-05-20T09:44:53.477Z,22.29
2023-05-20T09:45:53.858Z,21.78
2023-05-20T09:46:54.099Z,21.67
2023-05-20T09:47:54.509Z,21.67
2023-05-20T09:48:54.764Z,21.92
2023-05-20T09:49:55.054Z,21.95
2023-05-20T09:50:55.343Z,21.57
2023-05-20T09:51:55.639Z,21.39
2023-05-20T09:52:55.971Z,21.23
2023-05-20T09:53:56.326Z,21.38
2023-05-20T09:54:56.567Z,21.46
2023-05-20T09:55:56.860Z,21.53
2023-05-20T09:56:57.157Z,21.59
2023-05-20T09:57:57.466Z,21.61
2023-05-20T09:58:57.814Z,21.64
2023-05-20T09:59:58.124Z,21.56
2023-05-20T10:00:59.342Z,21.51
2023-05-20T10:01:58.726Z,21.69
2023-05-20T10:04:12.707Z,22.17
2023-05-20T10:05:15.631Z,22.07
2023-05-20T10:06:13.222Z,21.78
2023-05-20T10:07:13.540Z,21.85
2023-05-20T10:08:13.876Z,21.97
2023-05-20T10:09:14.195Z,21.98
2023-05-20T10:10:14.532Z,21.66
2023-05-20T10:11:14.823Z,21.53
2023-05-20T10:12:15.125Z,21.30
2023-05-20T10:13:15.462Z,21.17
2023-05-20T10:14:15.783Z,21.09
2023-05-20T10:15:16.119Z,20.95
2023-05-20T10:16:16.337Z,21.02
2023-05-20T10:17:16.699Z,21.23
2023-05-20T10:18:16.856Z,21.30
2023-05-20T10:19:17.214Z,21.19
2023-05-20T10:20:17.508Z,21.20
2023-05-20T10:21:17.804Z,21.21
2023-05-20T10:22:18.122Z,21.21
2023-05-20T10:23:18.416Z,21.35
2023-05-20T10:24:18.735Z,21.57
2023-05-20T10:25:19.061Z,21.81
2023-05-20T10:26:19.347Z,21.60
2023-05-20T10:27:19.657Z,21.44
2023-05-20T10:28:19.944Z,21.11
2023-05-20T10:29:27.274Z,20.87
2023-05-20T10:30:20.470Z,20.99
2023-05-20T10:31:20.752Z,21.09
2023-05-20T10:32:21.105Z,20.99
2023-05-20T10:33:21.356Z,21.06
2023-05-20T10:34:21.629Z,21.36
2023-05-20T10:35:21.965Z,21.56
2023-05-20T10:36:22.275Z,21.59
2023-05-20T10:37:22.565Z,21.48
2023-05-20T10:38:22.866Z,21.44
2023-05-20T10:39:23.207Z,21.42
2023-05-20T10:40:23.422Z,21.54
2023-05-20T10:41:23.755Z,21.63
2023-05-20T10:42:24.041Z,21.39
2023-05-20T10:43:24.353Z,21.05
2023-05-20T10:44:24.697Z,20.80
2023-05-20T10:45:25.015Z,20.84
2023-05-20T10:46:34.994Z,21.11
2023-05-20T10:47:26.865Z,21.24
2023-05-20T10:48:26.273Z,21.35
2023-05-20T10:49:27.728Z,21.39
2023-05-20T10:50:26.452Z,21.54
2023-05-20T10:51:26.781Z,21.67
2023-05-20T10:52:27.080Z,21.61
2023-05-20T10:53:33.906Z,21.39
2023-05-20T10:54:28.697Z,21.36
2023-05-20T10:55:27.887Z,21.48
2023-05-20T10:56:28.171Z,21.26
2023-05-20T10:57:28.483Z,21.44
2023-05-20T10:58:28.815Z,21.45
2023-05-20T10:59:29.101Z,21.50
2023-05-20T11:00:29.406Z,21.64
2023-05-20T11:01:29.878Z,21.76
2023-05-20T11:02:29.981Z,21.94
2023-05-20T11:03:37.417Z,21.90
2023-05-20T11:04:30.522Z,21.82
2023-05-20T11:05:30.836Z,22.02
2023-05-20T11:06:31.133Z,22.14
2023-05-20T11:07:31.439Z,21.69
2023-05-20T11:08:31.748Z,21.74
2023-05-20T11:09:32.047Z,21.79
2023-05-20T11:10:32.486Z,21.81
2023-05-20T11:11:32.609Z,21.76
2023-05-20T11:12:33.055Z,21.76
2023-05-20T11:13:33.266Z,21.90
2023-05-20T11:14:33.565Z,21.97
2023-05-20T11:15:33.881Z,21.61
2023-05-20T11:16:34.273Z,21.67
2023-05-20T11:17:34.601Z,21.82
2023-05-20T11:18:34.880Z,21.64
2023-05-20T11:19:35.230Z,21.57
2023-05-20T11:20:35.630Z,21.67
2023-05-20T11:21:35.736Z,21.74
2023-05-20T11:22:36.028Z,21.63
2023-05-20T11:23:37.553Z,21.72
2023-05-20T11:24:36.613Z,21.72
2023-05-20T11:25:36.902Z,21.57
2023-05-20T11:26:37.181Z,21.45
2023-05-20T11:29:58.465Z,21.45
2023-05-20T11:30:58.787Z,21.42
2023-05-20T11:31:59.019Z,21.50
2023-05-20T11:32:59.253Z,21.34
2023-05-20T11:33:59.543Z,21.26
2023-05-20T11:34:59.841Z,21.21
2023-05-20T11:36:00.134Z,21.19
2023-05-20T11:37:00.456Z,21.01
2023-05-20T11:38:00.779Z,20.95
2023-05-20T11:39:01.101Z,20.95
2023-05-20T11:40:01.428Z,20.96
2023-05-20T11:41:01.732Z,20.99
2023-05-20T11:42:02.037Z,21.14
2023-05-20T11:43:02.339Z,21.27
2023-05-20T11:44:02.664Z,21.35
2023-05-20T11:45:02.982Z,21.26
2023-05-20T11:46:03.437Z,21.27
2023-05-20T11:47:03.789Z,21.08
2023-05-20T11:48:03.963Z,21.13
2023-05-20T11:49:04.123Z,21.36
2023-05-20T11:50:04.472Z,21.66
2023-05-20T11:51:04.696Z,21.81
2023-05-20T11:52:05.013Z,21.63
2023-05-20T11:53:05.307Z,21.63
2023-05-20T11:54:05.662Z,21.75
2023-05-20T11:55:05.965Z,21.90
2023-05-20T11:56:06.299Z,21.98
2023-05-20T11:57:07.288Z,22.13
2023-05-20T11:58:06.914Z,22.37
2023-05-20T11:59:07.244Z,21.97
2023-05-20T12:00:07.553Z,21.95
2023-05-20T12:01:21.009Z,21.83
2023-05-20T12:02:09.174Z,21.90
2023-05-20T12:03:08.424Z,21.99
2023-05-20T12:04:08.714Z,22.07
2023-05-20T12:05:08.876Z,21.99
2023-05-20T12:06:09.073Z,21.92
2023-05-20T12:07:09.479Z,22.07
2023-05-20T12:08:09.613Z,22.19
2023-05-20T12:09:10.031Z,22.38
2023-05-20T12:10:10.201Z,22.53
2023-05-20T12:11:10.556Z,22.37
2023-05-20T12:12:10.755Z,22.17
2023-05-20T12:13:11.050Z,21.90
2023-05-20T12:14:11.388Z,21.63
2023-05-20T12:15:11.760Z,21.46
2023-05-20T12:16:12.154Z,21.24
2023-05-20T12:17:12.283Z,21.45
2023-05-20T12:18:12.661Z,21.69
2023-05-20T12:19:12.884Z,21.91
2023-05-20T12:20:13.157Z,21.99
2023-05-20T12:21:13.517Z,22.14
2023-05-20T12:22:13.798Z,22.07
2023-05-20T12:23:14.096Z,22.06
2023-05-20T12:24:14.454Z,22.22
2023-05-20T12:25:14.750Z,22.32
2023-05-20T12:26:15.062Z,22.22
2023-05-20T12:27:15.346Z,22.01
2023-05-20T12:28:15.686Z,22.07
2023-05-20T12:29:16.002Z,22.01
2023-05-20T12:30:16.341Z,21.81
2023-05-20T12:31:16.641Z,21.66
2023-05-20T12:32:16.985Z,21.79
2023-05-20T12:33:17.302Z,21.71
2023-05-20T12:34:17.639Z,21.46
2023-05-20T12:35:17.960Z,21.38
2023-05-20T12:36:18.286Z,21.56
2023-05-20T12:37:18.605Z,21.63
2023-05-20T12:38:18.882Z,21.82
2023-05-20T12:39:19.163Z,21.94
2023-05-20T12:40:19.483Z,21.83
2023-05-20T12:41:19.841Z,21.94
2023-05-20T12:42:20.122Z,21.91
2023-05-20T12:43:20.425Z,21.95
2023-05-20T12:44:20.706Z,21.95
2023-05-20T12:45:21.040Z,21.79
2023-05-20T12:46:21.369Z,21.69
2023-05-20T12:47:21.784Z,21.66
2023-05-20T12:48:22.031Z,21.83
2023-05-20T12:49:22.321Z,21.95
2023-05-20T12:50:22.638Z,22.01
2023-05-20T12:51:22.959Z,21.91
2023-05-20T12:52:23.288Z,21.78
2023-05-20T12:53:23.603Z,21.67
2023-05-20T12:54:23.906Z,21.57
2023-05-20T12:55:24.243Z,21.50
2023-05-20T12:56:24.417Z,21.45
2023-05-20T12:57:24.742Z,21.54
2023-05-20T12:58:25.034Z,21.67
2023-05-20T12:59:25.376Z,21.64
2023-05-20T13:00:25.678Z,21.69
2023-05-20T13:01:26.030Z,21.78
2023-05-20T13:02:26.460Z,21.88
2023-05-20T13:03:26.648Z,21.92
2023-05-20T13:04:26.916Z,21.74
2023-05-20T13:05:27.206Z,21.44